sensor_id;sensor_type;location;lat;lon;timestamp;P1;durP1;ratioP1;P2;durP2;ratioP2
70806;SDS011;58882;52.170;5.386;2023-10-08T00:02:45;19.80;;;4.72;;
70806;SDS011;58882;52.170;5.386;2023-10-08T00:05:13;19.73;;;4.40;;
70806;SDS011;58882;52.170;5.386;2023-10-08T00:07:42;18.35;;;5.00;;
70806;SDS011;58882;52.170;5.386;2023-10-08T00:10:09;18.80;;;4.60;;
70806;SDS011;58882;52.170;5.386;2023-10-08T00:12:36;20.33;;;4.88;;
70806;SDS011;58882;52.170;5.386;2023-10-08T00:15:03;19.17;;;4.28;;
70806;SDS011;58882;52.170;5.386;2023-10-08T00:17:33;19.73;;;4.82;;
70806;SDS011;58882;52.170;5.386;2023-10-08T00:20:00;19.85;;;4.57;;
70806;SDS011;58882;52.170;5.386;2023-10-08T00:22:27;23.23;;;5.45;;
70806;SDS011;58882;52.170;5.386;2023-10-08T00:24:57;19.10;;;4.70;;
70806;SDS011;58882;52.170;5.386;2023-10-08T00:27:24;23.27;;;5.13;;
70806;SDS011;58882;52.170;5.386;2023-10-08T00:29:52;26.00;;;5.35;;
70806;SDS011;58882;52.170;5.386;2023-10-08T00:32:19;24.85;;;5.20;;
70806;SDS011;58882;52.170;5.386;2023-10-08T00:34:48;19.25;;;4.43;;
70806;SDS011;58882;52.170;5.386;2023-10-08T00:37:18;18.30;;;4.85;;
70806;SDS011;58882;52.170;5.386;2023-10-08T00:39:44;19.38;;;4.85;;
70806;SDS011;58882;52.170;5.386;2023-10-08T00:42:12;21.58;;;4.70;;
70806;SDS011;58882;52.170;5.386;2023-10-08T00:44:39;19.80;;;4.65;;
70806;SDS011;58882;52.170;5.386;2023-10-08T00:47:18;22.98;;;5.13;;
70806;SDS011;58882;52.170;5.386;2023-10-08T00:49:47;20.25;;;5.13;;
70806;SDS011;58882;52.170;5.386;2023-10-08T00:52:20;25.42;;;5.05;;
70806;SDS011;58882;52.170;5.386;2023-10-08T00:54:56;20.38;;;4.68;;
70806;SDS011;58882;52.170;5.386;2023-10-08T00:57:35;21.48;;;4.80;;
70806;SDS011;58882;52.170;5.386;2023-10-08T01:00:06;23.73;;;4.72;;
70806;SDS011;58882;52.170;5.386;2023-10-08T01:02:41;14.40;;;4.22;;
70806;SDS011;58882;52.170;5.386;2023-10-08T01:05:27;21.35;;;4.97;;
70806;SDS011;58882;52.170;5.386;2023-10-08T01:08:13;21.48;;;4.90;;
70806;SDS011;58882;52.170;5.386;2023-10-08T01:10:48;19.17;;;5.60;;
70806;SDS011;58882;52.170;5.386;2023-10-08T01:13:24;24.25;;;5.55;;
70806;SDS011;58882;52.170;5.386;2023-10-08T01:18:21;25.20;;;4.82;;
70806;SDS011;58882;52.170;5.386;2023-10-08T01:20:57;17.15;;;4.70;;
70806;SDS011;58882;52.170;5.386;2023-10-08T01:23:30;18.45;;;4.95;;
70806;SDS011;58882;52.170;5.386;2023-10-08T01:25:58;19.15;;;4.85;;
70806;SDS011;58882;52.170;5.386;2023-10-08T01:28:37;19.13;;;5.25;;
70806;SDS011;58882;52.170;5.386;2023-10-08T01:31:04;22.52;;;4.65;;
70806;SDS011;58882;52.170;5.386;2023-10-08T01:33:33;18.15;;;4.32;;
70806;SDS011;58882;52.170;5.386;2023-10-08T01:36:13;23.25;;;5.20;;
70806;SDS011;58882;52.170;5.386;2023-10-08T01:38:40;22.83;;;5.13;;
70806;SDS011;58882;52.170;5.386;2023-10-08T01:41:08;18.00;;;4.75;;
70806;SDS011;58882;52.170;5.386;2023-10-08T01:43:46;22.40;;;5.65;;
70806;SDS011;58882;52.170;5.386;2023-10-08T01:46:13;22.95;;;5.13;;
70806;SDS011;58882;52.170;5.386;2023-10-08T01:48:42;18.50;;;4.90;;
70806;SDS011;58882;52.170;5.386;2023-10-08T01:51:11;16.25;;;4.97;;
70806;SDS011;58882;52.170;5.386;2023-10-08T01:53:46;32.33;;;5.80;;
70806;SDS011;58882;52.170;5.386;2023-10-08T01:56:14;21.63;;;5.68;;
70806;SDS011;58882;52.170;5.386;2023-10-08T01:58:41;19.25;;;5.25;;
70806;SDS011;58882;52.170;5.386;2023-10-08T02:01:07;23.45;;;5.20;;
70806;SDS011;58882;52.170;5.386;2023-10-08T02:03:38;18.58;;;5.10;;
70806;SDS011;58882;52.170;5.386;2023-10-08T02:06:05;16.80;;;4.78;;
70806;SDS011;58882;52.170;5.386;2023-10-08T02:08:35;17.60;;;5.28;;
70806;SDS011;58882;52.170;5.386;2023-10-08T02:11:03;19.40;;;4.60;;
70806;SDS011;58882;52.170;5.386;2023-10-08T02:13:30;20.25;;;5.00;;
70806;SDS011;58882;52.170;5.386;2023-10-08T02:15:57;23.45;;;4.95;;
70806;SDS011;58882;52.170;5.386;2023-10-08T02:18:24;17.70;;;4.30;;
70806;SDS011;58882;52.170;5.386;2023-10-08T02:20:52;23.02;;;5.38;;
70806;SDS011;58882;52.170;5.386;2023-10-08T02:23:19;23.35;;;5.93;;
70806;SDS011;58882;52.170;5.386;2023-10-08T02:25:46;22.65;;;5.22;;
70806;SDS011;58882;52.170;5.386;2023-10-08T02:28:14;16.65;;;4.95;;
70806;SDS011;58882;52.170;5.386;2023-10-08T02:30:42;21.40;;;5.70;;
70806;SDS011;58882;52.170;5.386;2023-10-08T02:33:09;18.75;;;5.22;;
70806;SDS011;58882;52.170;5.386;2023-10-08T02:35:43;17.90;;;5.03;;
70806;SDS011;58882;52.170;5.386;2023-10-08T02:38:12;21.33;;;4.88;;
70806;SDS011;58882;52.170;5.386;2023-10-08T02:40:44;19.10;;;5.45;;
70806;SDS011;58882;52.170;5.386;2023-10-08T02:43:15;19.50;;;5.35;;
70806;SDS011;58882;52.170;5.386;2023-10-08T02:45:43;17.17;;;5.10;;
70806;SDS011;58882;52.170;5.386;2023-10-08T02:48:17;16.58;;;5.20;;
70806;SDS011;58882;52.170;5.386;2023-10-08T02:50:45;15.45;;;5.13;;
70806;SDS011;58882;52.170;5.386;2023-10-08T02:53:12;16.38;;;5.53;;
70806;SDS011;58882;52.170;5.386;2023-10-08T02:55:44;18.58;;;5.72;;
70806;SDS011;58882;52.170;5.386;2023-10-08T02:58:13;21.70;;;5.65;;
70806;SDS011;58882;52.170;5.386;2023-10-08T03:00:42;21.63;;;5.38;;
70806;SDS011;58882;52.170;5.386;2023-10-08T03:03:10;17.25;;;5.47;;
70806;SDS011;58882;52.170;5.386;2023-10-08T03:05:48;27.13;;;7.15;;
70806;SDS011;58882;52.170;5.386;2023-10-08T03:08:16;23.00;;;5.90;;
70806;SDS011;58882;52.170;5.386;2023-10-08T03:10:48;34.78;;;6.13;;
70806;SDS011;58882;52.170;5.386;2023-10-08T03:13:16;22.95;;;6.30;;
70806;SDS011;58882;52.170;5.386;2023-10-08T03:15:45;19.55;;;5.65;;
70806;SDS011;58882;52.170;5.386;2023-10-08T03:18:24;19.67;;;5.78;;
70806;SDS011;58882;52.170;5.386;2023-10-08T03:20:51;18.02;;;6.40;;
70806;SDS011;58882;52.170;5.386;2023-10-08T03:23:18;18.50;;;5.65;;
70806;SDS011;58882;52.170;5.386;2023-10-08T03:25:56;18.02;;;5.43;;
70806;SDS011;58882;52.170;5.386;2023-10-08T03:28:42;23.80;;;5.53;;
70806;SDS011;58882;52.170;5.386;2023-10-08T03:31:08;18.23;;;5.88;;
70806;SDS011;58882;52.170;5.386;2023-10-08T03:33:45;16.45;;;5.60;;
70806;SDS011;58882;52.170;5.386;2023-10-08T03:36:15;17.30;;;5.85;;
70806;SDS011;58882;52.170;5.386;2023-10-08T03:38:49;20.40;;;5.88;;
70806;SDS011;58882;52.170;5.386;2023-10-08T03:41:22;18.10;;;5.75;;
70806;SDS011;58882;52.170;5.386;2023-10-08T03:43:56;19.73;;;6.30;;
70806;SDS011;58882;52.170;5.386;2023-10-08T03:46:32;15.85;;;5.93;;
70806;SDS011;58882;52.170;5.386;2023-10-08T03:49:06;22.30;;;6.55;;
70806;SDS011;58882;52.170;5.386;2023-10-08T03:51:43;22.15;;;6.03;;
70806;SDS011;58882;52.170;5.386;2023-10-08T03:54:10;24.52;;;5.38;;
70806;SDS011;58882;52.170;5.386;2023-10-08T03:56:45;21.42;;;5.38;;
70806;SDS011;58882;52.170;5.386;2023-10-08T03:59:15;13.60;;;4.78;;
70806;SDS011;58882;52.170;5.386;2023-10-08T04:01:58;17.50;;;4.20;;
70806;SDS011;58882;52.170;5.386;2023-10-08T04:04:42;19.75;;;5.15;;
70806;SDS011;58882;52.170;5.386;2023-10-08T04:07:23;18.67;;;4.30;;
70806;SDS011;58882;52.170;5.386;2023-10-08T04:09:51;17.15;;;4.05;;
70806;SDS011;58882;52.170;5.386;2023-10-08T04:12:47;13.32;;;3.88;;
70806;SDS011;58882;52.170;5.386;2023-10-08T04:15:17;16.98;;;3.75;;
70806;SDS011;58882;52.170;5.386;2023-10-08T04:17:44;14.85;;;3.60;;
70806;SDS011;58882;52.170;5.386;2023-10-08T04:20:12;11.60;;;3.33;;
70806;SDS011;58882;52.170;5.386;2023-10-08T04:23:10;11.73;;;3.13;;
70806;SDS011;58882;52.170;5.386;2023-10-08T04:25:44;14.30;;;2.97;;
70806;SDS011;58882;52.170;5.386;2023-10-08T04:28:11;12.70;;;3.30;;
70806;SDS011;58882;52.170;5.386;2023-10-08T04:30:44;12.48;;;3.50;;
70806;SDS011;58882;52.170;5.386;2023-10-08T04:33:14;10.85;;;3.15;;
70806;SDS011;58882;52.170;5.386;2023-10-08T04:35:41;11.25;;;2.97;;
70806;SDS011;58882;52.170;5.386;2023-10-08T04:38:22;13.80;;;3.22;;
70806;SDS011;58882;52.170;5.386;2023-10-08T04:40:55;10.40;;;2.95;;
70806;SDS011;58882;52.170;5.386;2023-10-08T04:43:28;13.25;;;3.03;;
70806;SDS011;58882;52.170;5.386;2023-10-08T04:48:24;12.07;;;2.90;;
70806;SDS011;58882;52.170;5.386;2023-10-08T04:50:53;11.48;;;2.88;;
70806;SDS011;58882;52.170;5.386;2023-10-08T04:53:31;13.02;;;3.13;;
70806;SDS011;58882;52.170;5.386;2023-10-08T04:56:03;10.98;;;2.63;;
70806;SDS011;58882;52.170;5.386;2023-10-08T04:58:33;11.07;;;2.70;;
70806;SDS011;58882;52.170;5.386;2023-10-08T05:01:04;11.63;;;2.67;;
70806;SDS011;58882;52.170;5.386;2023-10-08T05:03:50;12.75;;;2.70;;
70806;SDS011;58882;52.170;5.386;2023-10-08T05:06:25;14.18;;;3.10;;
70806;SDS011;58882;52.170;5.386;2023-10-08T05:09:02;12.95;;;3.00;;
70806;SDS011;58882;52.170;5.386;2023-10-08T05:11:53;11.70;;;3.20;;
70806;SDS011;58882;52.170;5.386;2023-10-08T05:14:21;14.25;;;3.00;;
70806;SDS011;58882;52.170;5.386;2023-10-08T05:16:58;12.02;;;3.15;;
70806;SDS011;58882;52.170;5.386;2023-10-08T05:19:49;8.68;;;2.33;;
70806;SDS011;58882;52.170;5.386;2023-10-08T05:22:16;11.45;;;2.72;;
70806;SDS011;58882;52.170;5.386;2023-10-08T05:24:47;14.63;;;2.72;;
70806;SDS011;58882;52.170;5.386;2023-10-08T05:27:34;16.75;;;3.20;;
70806;SDS011;58882;52.170;5.386;2023-10-08T05:30:27;9.18;;;2.95;;
70806;SDS011;58882;52.170;5.386;2023-10-08T05:33:04;11.65;;;2.90;;
70806;SDS011;58882;52.170;5.386;2023-10-08T05:35:33;11.95;;;2.50;;
70806;SDS011;58882;52.170;5.386;2023-10-08T05:38:08;9.38;;;2.17;;
70806;SDS011;58882;52.170;5.386;2023-10-08T05:40:49;7.25;;;2.08;;
70806;SDS011;58882;52.170;5.386;2023-10-08T05:43:31;8.13;;;2.20;;
70806;SDS011;58882;52.170;5.386;2023-10-08T05:46:13;9.20;;;2.58;;
70806;SDS011;58882;52.170;5.386;2023-10-08T05:48:54;8.38;;;2.30;;
70806;SDS011;58882;52.170;5.386;2023-10-08T05:51:35;7.45;;;2.00;;
70806;SDS011;58882;52.170;5.386;2023-10-08T05:54:16;6.85;;;2.28;;
70806;SDS011;58882;52.170;5.386;2023-10-08T05:56:57;9.48;;;2.40;;
70806;SDS011;58882;52.170;5.386;2023-10-08T05:59:38;8.35;;;1.98;;
70806;SDS011;58882;52.170;5.386;2023-10-08T06:02:22;8.45;;;1.70;;
70806;SDS011;58882;52.170;5.386;2023-10-08T06:07:40;6.63;;;1.73;;
70806;SDS011;58882;52.170;5.386;2023-10-08T06:10:20;5.60;;;1.40;;
70806;SDS011;58882;52.170;5.386;2023-10-08T06:13:05;6.80;;;1.60;;
70806;SDS011;58882;52.170;5.386;2023-10-08T06:15:40;7.35;;;1.60;;
70806;SDS011;58882;52.170;5.386;2023-10-08T06:18:20;5.20;;;1.50;;
70806;SDS011;58882;52.170;5.386;2023-10-08T06:20:59;7.55;;;1.77;;
70806;SDS011;58882;52.170;5.386;2023-10-08T06:23:27;5.95;;;1.20;;
70806;SDS011;58882;52.170;5.386;2023-10-08T06:25:55;6.78;;;1.42;;
70806;SDS011;58882;52.170;5.386;2023-10-08T06:28:25;7.60;;;1.33;;
70806;SDS011;58882;52.170;5.386;2023-10-08T06:30:53;8.75;;;1.77;;
70806;SDS011;58882;52.170;5.386;2023-10-08T06:33:22;6.28;;;1.48;;
70806;SDS011;58882;52.170;5.386;2023-10-08T06:35:58;4.47;;;1.40;;
70806;SDS011;58882;52.170;5.386;2023-10-08T06:38:45;6.05;;;1.30;;
70806;SDS011;58882;52.170;5.386;2023-10-08T06:41:16;5.72;;;1.40;;
70806;SDS011;58882;52.170;5.386;2023-10-08T06:44:06;4.50;;;1.20;;
70806;SDS011;58882;52.170;5.386;2023-10-08T06:46:33;4.80;;;1.20;;
70806;SDS011;58882;52.170;5.386;2023-10-08T06:49:04;9.23;;;1.58;;
70806;SDS011;58882;52.170;5.386;2023-10-08T06:51:39;6.13;;;1.40;;
70806;SDS011;58882;52.170;5.386;2023-10-08T06:54:10;5.35;;;1.25;;
70806;SDS011;58882;52.170;5.386;2023-10-08T06:56:41;6.10;;;1.30;;
70806;SDS011;58882;52.170;5.386;2023-10-08T06:59:18;3.60;;;1.30;;
70806;SDS011;58882;52.170;5.386;2023-10-08T07:01:49;4.65;;;1.45;;
70806;SDS011;58882;52.170;5.386;2023-10-08T07:04:18;3.38;;;1.50;;
70806;SDS011;58882;52.170;5.386;2023-10-08T07:06:45;5.28;;;1.35;;
70806;SDS011;58882;52.170;5.386;2023-10-08T07:09:13;3.10;;;1.30;;
70806;SDS011;58882;52.170;5.386;2023-10-08T07:11:55;2.08;;;1.20;;
70806;SDS011;58882;52.170;5.386;2023-10-08T07:14:24;2.25;;;1.17;;
70806;SDS011;58882;52.170;5.386;2023-10-08T07:16:59;3.75;;;1.10;;
70806;SDS011;58882;52.170;5.386;2023-10-08T07:19:28;3.17;;;1.20;;
70806;SDS011;58882;52.170;5.386;2023-10-08T07:22:07;3.83;;;1.48;;
70806;SDS011;58882;52.170;5.386;2023-10-08T07:24:45;3.90;;;1.30;;
70806;SDS011;58882;52.170;5.386;2023-10-08T07:27:17;3.67;;;1.50;;
70806;SDS011;58882;52.170;5.386;2023-10-08T07:29:48;3.92;;;1.42;;
70806;SDS011;58882;52.170;5.386;2023-10-08T07:32:16;3.97;;;1.55;;
70806;SDS011;58882;52.170;5.386;2023-10-08T07:34:45;2.25;;;1.40;;
70806;SDS011;58882;52.170;5.386;2023-10-08T07:37:12;4.53;;;1.70;;
70806;SDS011;58882;52.170;5.386;2023-10-08T07:39:40;2.95;;;1.55;;
70806;SDS011;58882;52.170;5.386;2023-10-08T07:42:13;2.63;;;1.38;;
70806;SDS011;58882;52.170;5.386;2023-10-08T07:44:40;4.65;;;1.50;;
70806;SDS011;58882;52.170;5.386;2023-10-08T07:47:08;3.40;;;1.40;;
70806;SDS011;58882;52.170;5.386;2023-10-08T07:49:38;3.13;;;1.40;;
70806;SDS011;58882;52.170;5.386;2023-10-08T07:52:05;3.08;;;1.58;;
70806;SDS011;58882;52.170;5.386;2023-10-08T07:54:32;2.63;;;1.50;;
70806;SDS011;58882;52.170;5.386;2023-10-08T07:57:02;3.58;;;1.58;;
70806;SDS011;58882;52.170;5.386;2023-10-08T07:59:36;6.40;;;1.77;;
70806;SDS011;58882;52.170;5.386;2023-10-08T08:02:14;6.40;;;1.35;;
70806;SDS011;58882;52.170;5.386;2023-10-08T08:04:44;5.25;;;1.83;;
70806;SDS011;58882;52.170;5.386;2023-10-08T08:07:12;7.13;;;1.67;;
70806;SDS011;58882;52.170;5.386;2023-10-08T08:09:46;7.00;;;1.65;;
70806;SDS011;58882;52.170;5.386;2023-10-08T08:12:19;6.57;;;1.80;;
70806;SDS011;58882;52.170;5.386;2023-10-08T08:14:48;3.28;;;1.58;;
70806;SDS011;58882;52.170;5.386;2023-10-08T08:17:15;4.60;;;1.50;;
70806;SDS011;58882;52.170;5.386;2023-10-08T08:19:44;2.88;;;1.20;;
70806;SDS011;58882;52.170;5.386;2023-10-08T08:22:14;3.55;;;1.50;;
70806;SDS011;58882;52.170;5.386;2023-10-08T08:24:50;4.47;;;1.80;;
70806;SDS011;58882;52.170;5.386;2023-10-08T08:27:28;3.45;;;1.60;;
70806;SDS011;58882;52.170;5.386;2023-10-08T08:29:59;4.43;;;1.63;;
70806;SDS011;58882;52.170;5.386;2023-10-08T08:32:42;4.18;;;1.70;;
70806;SDS011;58882;52.170;5.386;2023-10-08T08:35:11;3.72;;;1.40;;
70806;SDS011;58882;52.170;5.386;2023-10-08T08:37:38;6.38;;;1.80;;
70806;SDS011;58882;52.170;5.386;2023-10-08T08:40:07;4.65;;;1.30;;
70806;SDS011;58882;52.170;5.386;2023-10-08T08:42:44;4.30;;;1.45;;
70806;SDS011;58882;52.170;5.386;2023-10-08T08:45:21;4.18;;;1.65;;
70806;SDS011;58882;52.170;5.386;2023-10-08T08:47:51;4.40;;;1.70;;
70806;SDS011;58882;52.170;5.386;2023-10-08T08:50:19;2.83;;;1.33;;
70806;SDS011;58882;52.170;5.386;2023-10-08T08:52:48;4.30;;;1.40;;
70806;SDS011;58882;52.170;5.386;2023-10-08T08:55:15;2.72;;;1.30;;
70806;SDS011;58882;52.170;5.386;2023-10-08T08:57:45;4.60;;;1.50;;
70806;SDS011;58882;52.170;5.386;2023-10-08T09:00:14;3.55;;;1.58;;
70806;SDS011;58882;52.170;5.386;2023-10-08T09:02:47;3.13;;;1.20;;
70806;SDS011;58882;52.170;5.386;2023-10-08T09:05:16;5.82;;;1.90;;
70806;SDS011;58882;52.170;5.386;2023-10-08T09:07:57;3.30;;;1.38;;
70806;SDS011;58882;52.170;5.386;2023-10-08T09:10:29;4.35;;;1.50;;
70806;SDS011;58882;52.170;5.386;2023-10-08T09:13:03;2.85;;;1.40;;
70806;SDS011;58882;52.170;5.386;2023-10-08T09:15:34;3.47;;;1.40;;
70806;SDS011;58882;52.170;5.386;2023-10-08T09:20:31;6.18;;;1.60;;
70806;SDS011;58882;52.170;5.386;2023-10-08T09:25:34;3.13;;;1.30;;
70806;SDS011;58882;52.170;5.386;2023-10-08T09:28:01;4.00;;;1.48;;
70806;SDS011;58882;52.170;5.386;2023-10-08T09:30:29;3.10;;;1.33;;
70806;SDS011;58882;52.170;5.386;2023-10-08T09:32:56;3.58;;;1.48;;
70806;SDS011;58882;52.170;5.386;2023-10-08T09:35:24;3.55;;;1.48;;
70806;SDS011;58882;52.170;5.386;2023-10-08T09:37:52;6.03;;;1.67;;
70806;SDS011;58882;52.170;5.386;2023-10-08T09:40:20;3.67;;;1.63;;
70806;SDS011;58882;52.170;5.386;2023-10-08T09:42:47;3.53;;;1.80;;
70806;SDS011;58882;52.170;5.386;2023-10-08T09:45:14;5.97;;;1.70;;
70806;SDS011;58882;52.170;5.386;2023-10-08T09:47:43;4.60;;;2.00;;
70806;SDS011;58882;52.170;5.386;2023-10-08T09:50:15;3.55;;;1.42;;
70806;SDS011;58882;52.170;5.386;2023-10-08T09:55:55;4.15;;;1.70;;
70806;SDS011;58882;52.170;5.386;2023-10-08T09:58:23;4.80;;;1.80;;
70806;SDS011;58882;52.170;5.386;2023-10-08T10:00:53;3.78;;;1.40;;
70806;SDS011;58882;52.170;5.386;2023-10-08T10:03:26;4.57;;;1.60;;
70806;SDS011;58882;52.170;5.386;2023-10-08T10:05:55;3.83;;;1.55;;
70806;SDS011;58882;52.170;5.386;2023-10-08T10:08:26;6.97;;;2.63;;
70806;SDS011;58882;52.170;5.386;2023-10-08T10:10:59;3.40;;;1.65;;
70806;SDS011;58882;52.170;5.386;2023-10-08T10:13:34;4.30;;;1.92;;
70806;SDS011;58882;52.170;5.386;2023-10-08T10:16:09;3.10;;;1.65;;
70806;SDS011;58882;52.170;5.386;2023-10-08T10:18:36;3.47;;;1.83;;
70806;SDS011;58882;52.170;5.386;2023-10-08T10:26:21;5.30;;;2.00;;
70806;SDS011;58882;52.170;5.386;2023-10-08T10:31:38;2.72;;;1.38;;
70806;SDS011;58882;52.170;5.386;2023-10-08T10:34:05;3.35;;;1.70;;
70806;SDS011;58882;52.170;5.386;2023-10-08T10:36:35;3.95;;;2.00;;
70806;SDS011;58882;52.170;5.386;2023-10-08T10:39:03;4.03;;;2.03;;
70806;SDS011;58882;52.170;5.386;2023-10-08T10:41:48;6.57;;;2.10;;
70806;SDS011;58882;52.170;5.386;2023-10-08T10:44:15;6.20;;;2.40;;
70806;SDS011;58882;52.170;5.386;2023-10-08T10:46:42;4.53;;;1.90;;
70806;SDS011;58882;52.170;5.386;2023-10-08T10:49:20;4.68;;;2.20;;
70806;SDS011;58882;52.170;5.386;2023-10-08T10:51:49;5.43;;;2.50;;
70806;SDS011;58882;52.170;5.386;2023-10-08T10:54:19;3.70;;;1.77;;
70806;SDS011;58882;52.170;5.386;2023-10-08T10:56:50;3.22;;;1.70;;
70806;SDS011;58882;52.170;5.386;2023-10-08T10:59:30;3.47;;;1.92;;
70806;SDS011;58882;52.170;5.386;2023-10-08T11:02:06;4.80;;;2.25;;
70806;SDS011;58882;52.170;5.386;2023-10-08T11:04:47;4.20;;;2.25;;
70806;SDS011;58882;52.170;5.386;2023-10-08T11:07:19;5.78;;;2.13;;
70806;SDS011;58882;52.170;5.386;2023-10-08T11:09:48;4.85;;;2.40;;
70806;SDS011;58882;52.170;5.386;2023-10-08T11:12:18;5.13;;;2.00;;
70806;SDS011;58882;52.170;5.386;2023-10-08T11:14:49;5.20;;;2.45;;
70806;SDS011;58882;52.170;5.386;2023-10-08T11:17:22;6.07;;;2.50;;
70806;SDS011;58882;52.170;5.386;2023-10-08T11:19:51;5.18;;;2.70;;
70806;SDS011;58882;52.170;5.386;2023-10-08T11:22:18;5.07;;;2.50;;
70806;SDS011;58882;52.170;5.386;2023-10-08T11:24:49;6.13;;;2.80;;
70806;SDS011;58882;52.170;5.386;2023-10-08T11:27:20;4.82;;;2.47;;
70806;SDS011;58882;52.170;5.386;2023-10-08T11:30:02;4.68;;;2.30;;
70806;SDS011;58882;52.170;5.386;2023-10-08T11:32:38;5.15;;;2.47;;
70806;SDS011;58882;52.170;5.386;2023-10-08T11:35:05;6.03;;;2.70;;
70806;SDS011;58882;52.170;5.386;2023-10-08T11:37:45;4.80;;;2.47;;
70806;SDS011;58882;52.170;5.386;2023-10-08T11:40:24;4.90;;;2.00;;
70806;SDS011;58882;52.170;5.386;2023-10-08T11:42:56;5.22;;;2.70;;
70806;SDS011;58882;52.170;5.386;2023-10-08T11:45:25;7.80;;;2.65;;
70806;SDS011;58882;52.170;5.386;2023-10-08T11:47:53;5.15;;;2.63;;
70806;SDS011;58882;52.170;5.386;2023-10-08T11:50:27;4.28;;;2.22;;
70806;SDS011;58882;52.170;5.386;2023-10-08T11:52:58;6.32;;;3.00;;
70806;SDS011;58882;52.170;5.386;2023-10-08T11:55:30;4.15;;;2.00;;
70806;SDS011;58882;52.170;5.386;2023-10-08T11:58:08;5.32;;;2.50;;
70806;SDS011;58882;52.170;5.386;2023-10-08T12:00:38;4.53;;;2.55;;
70806;SDS011;58882;52.170;5.386;2023-10-08T12:03:14;5.35;;;2.63;;
70806;SDS011;58882;52.170;5.386;2023-10-08T12:05:50;6.20;;;2.85;;
70806;SDS011;58882;52.170;5.386;2023-10-08T12:08:25;5.68;;;2.20;;
70806;SDS011;58882;52.170;5.386;2023-10-08T12:10:54;7.28;;;2.63;;
70806;SDS011;58882;52.170;5.386;2023-10-08T12:13:21;5.43;;;2.67;;
70806;SDS011;58882;52.170;5.386;2023-10-08T12:15:52;5.20;;;2.20;;
70806;SDS011;58882;52.170;5.386;2023-10-08T12:18:33;5.70;;;2.47;;
70806;SDS011;58882;52.170;5.386;2023-10-08T12:21:06;4.43;;;2.30;;
70806;SDS011;58882;52.170;5.386;2023-10-08T12:23:41;4.28;;;2.10;;
70806;SDS011;58882;52.170;5.386;2023-10-08T12:26:16;6.43;;;2.45;;
70806;SDS011;58882;52.170;5.386;2023-10-08T12:28:46;7.03;;;2.30;;
70806;SDS011;58882;52.170;5.386;2023-10-08T12:31:17;5.47;;;2.50;;
70806;SDS011;58882;52.170;5.386;2023-10-08T12:33:48;6.45;;;2.50;;
70806;SDS011;58882;52.170;5.386;2023-10-08T12:36:20;5.30;;;2.10;;
70806;SDS011;58882;52.170;5.386;2023-10-08T12:38:50;5.13;;;2.20;;
70806;SDS011;58882;52.170;5.386;2023-10-08T12:41:27;5.38;;;2.10;;
70806;SDS011;58882;52.170;5.386;2023-10-08T12:43:54;4.72;;;2.25;;
70806;SDS011;58882;52.170;5.386;2023-10-08T12:46:21;6.25;;;2.20;;
70806;SDS011;58882;52.170;5.386;2023-10-08T12:48:52;5.03;;;2.00;;
70806;SDS011;58882;52.170;5.386;2023-10-08T12:51:21;5.40;;;2.15;;
70806;SDS011;58882;52.170;5.386;2023-10-08T12:53:51;4.43;;;2.40;;
70806;SDS011;58882;52.170;5.386;2023-10-08T12:56:39;5.60;;;2.28;;
70806;SDS011;58882;52.170;5.386;2023-10-08T12:59:12;4.40;;;2.22;;
70806;SDS011;58882;52.170;5.386;2023-10-08T13:01:47;7.35;;;2.53;;
70806;SDS011;58882;52.170;5.386;2023-10-08T13:04:20;4.82;;;2.10;;
70806;SDS011;58882;52.170;5.386;2023-10-08T13:06:54;3.92;;;1.80;;
70806;SDS011;58882;52.170;5.386;2023-10-08T13:09:27;3.65;;;1.70;;
70806;SDS011;58882;52.170;5.386;2023-10-08T13:11:58;4.50;;;1.92;;
70806;SDS011;58882;52.170;5.386;2023-10-08T13:14:28;5.43;;;1.70;;
70806;SDS011;58882;52.170;5.386;2023-10-08T13:16:54;3.47;;;1.60;;
70806;SDS011;58882;52.170;5.386;2023-10-08T13:19:22;5.07;;;1.60;;
70806;SDS011;58882;52.170;5.386;2023-10-08T13:21:52;3.03;;;1.35;;
70806;SDS011;58882;52.170;5.386;2023-10-08T13:24:19;5.43;;;1.80;;
70806;SDS011;58882;52.170;5.386;2023-10-08T13:26:50;4.65;;;1.92;;
70806;SDS011;58882;52.170;5.386;2023-10-08T13:29:17;4.32;;;1.50;;
70806;SDS011;58882;52.170;5.386;2023-10-08T13:31:45;4.43;;;1.70;;
70806;SDS011;58882;52.170;5.386;2023-10-08T13:34:13;6.47;;;1.85;;
70806;SDS011;58882;52.170;5.386;2023-10-08T13:36:42;5.10;;;1.60;;
70806;SDS011;58882;52.170;5.386;2023-10-08T13:39:13;4.68;;;1.65;;
70806;SDS011;58882;52.170;5.386;2023-10-08T13:41:45;5.18;;;1.98;;
70806;SDS011;58882;52.170;5.386;2023-10-08T13:44:15;3.72;;;1.60;;
70806;SDS011;58882;52.170;5.386;2023-10-08T13:46:42;4.35;;;1.63;;
70806;SDS011;58882;52.170;5.386;2023-10-08T13:49:16;3.83;;;1.90;;
70806;SDS011;58882;52.170;5.386;2023-10-08T13:51:44;6.65;;;1.88;;
70806;SDS011;58882;52.170;5.386;2023-10-08T13:54:13;5.28;;;1.95;;
70806;SDS011;58882;52.170;5.386;2023-10-08T13:59:14;5.30;;;1.98;;
70806;SDS011;58882;52.170;5.386;2023-10-08T14:01:43;5.53;;;2.00;;
70806;SDS011;58882;52.170;5.386;2023-10-08T14:04:18;7.68;;;2.15;;
70806;SDS011;58882;52.170;5.386;2023-10-08T14:06:56;6.45;;;2.42;;
70806;SDS011;58882;52.170;5.386;2023-10-08T14:09:24;6.55;;;2.13;;
70806;SDS011;58882;52.170;5.386;2023-10-08T14:11:59;5.57;;;1.75;;
70806;SDS011;58882;52.170;5.386;2023-10-08T14:14:27;7.75;;;2.50;;
70806;SDS011;58882;52.170;5.386;2023-10-08T14:17:00;9.40;;;2.28;;
70806;SDS011;58882;52.170;5.386;2023-10-08T14:19:37;4.35;;;1.70;;
70806;SDS011;58882;52.170;5.386;2023-10-08T14:22:27;5.03;;;1.95;;
70806;SDS011;58882;52.170;5.386;2023-10-08T14:24:53;4.80;;;1.70;;
70806;SDS011;58882;52.170;5.386;2023-10-08T14:27:26;6.38;;;1.95;;
70806;SDS011;58882;52.170;5.386;2023-10-08T14:30:07;6.72;;;1.88;;
70806;SDS011;58882;52.170;5.386;2023-10-08T14:32:41;4.63;;;1.38;;
70806;SDS011;58882;52.170;5.386;2023-10-08T14:35:13;7.50;;;2.10;;
70806;SDS011;58882;52.170;5.386;2023-10-08T14:37:59;5.00;;;1.80;;
70806;SDS011;58882;52.170;5.386;2023-10-08T14:40:46;7.47;;;2.15;;
70806;SDS011;58882;52.170;5.386;2023-10-08T14:43:32;3.83;;;1.52;;
70806;SDS011;58882;52.170;5.386;2023-10-08T14:46:01;7.15;;;1.67;;
70806;SDS011;58882;52.170;5.386;2023-10-08T14:48:31;4.28;;;1.77;;
70806;SDS011;58882;52.170;5.386;2023-10-08T14:51:02;6.55;;;1.92;;
70806;SDS011;58882;52.170;5.386;2023-10-08T14:53:29;5.10;;;2.30;;
70806;SDS011;58882;52.170;5.386;2023-10-08T14:55:57;5.20;;;1.83;;
70806;SDS011;58882;52.170;5.386;2023-10-08T14:58:24;6.10;;;1.80;;
70806;SDS011;58882;52.170;5.386;2023-10-08T15:00:52;5.10;;;2.05;;
70806;SDS011;58882;52.170;5.386;2023-10-08T15:03:20;4.82;;;2.10;;
70806;SDS011;58882;52.170;5.386;2023-10-08T15:05:47;5.43;;;1.88;;
70806;SDS011;58882;52.170;5.386;2023-10-08T15:08:17;5.03;;;1.60;;
70806;SDS011;58882;52.170;5.386;2023-10-08T15:10:45;5.88;;;2.13;;
70806;SDS011;58882;52.170;5.386;2023-10-08T15:13:13;5.43;;;2.00;;
70806;SDS011;58882;52.170;5.386;2023-10-08T15:15:40;3.95;;;1.70;;
70806;SDS011;58882;52.170;5.386;2023-10-08T15:18:08;4.38;;;1.75;;
70806;SDS011;58882;52.170;5.386;2023-10-08T15:20:39;6.13;;;2.40;;
70806;SDS011;58882;52.170;5.386;2023-10-08T15:25:39;4.70;;;1.55;;
70806;SDS011;58882;52.170;5.386;2023-10-08T15:28:06;4.47;;;1.83;;
70806;SDS011;58882;52.170;5.386;2023-10-08T15:30:34;4.65;;;1.67;;
70806;SDS011;58882;52.170;5.386;2023-10-08T15:33:02;5.28;;;2.13;;
70806;SDS011;58882;52.170;5.386;2023-10-08T15:35:29;5.85;;;1.90;;
70806;SDS011;58882;52.170;5.386;2023-10-08T15:37:56;4.50;;;1.75;;
70806;SDS011;58882;52.170;5.386;2023-10-08T15:40:22;4.45;;;2.00;;
70806;SDS011;58882;52.170;5.386;2023-10-08T15:42:51;5.40;;;1.92;;